createdAt,value
2018-10-11T00:00:02.884Z,14.47
2018-10-11T00:02:32.376Z,14.03
2018-10-11T00:05:01.810Z,14.27
2018-10-11T00:07:31.136Z,13.20
2018-10-11T00:10:00.427Z,13.87
2018-10-11T00:12:29.780Z,13.97
2018-10-11T00:14:59.154Z,14.93
2018-10-11T00:17:28.447Z,13.33
2018-10-11T00:19:57.848Z,13.83
2018-10-11T00:22:27.202Z,14.27
2018-10-11T00:24:56.483Z,14.47
2018-10-11T00:27:25.779Z,13.20
2018-10-11T00:29:55.146Z,15.17
2018-10-11T00:32:24.500Z,13.77
2018-10-11T00:34:53.841Z,14.30
2018-10-11T00:37:23.172Z,13.50
2018-10-11T00:39:52.574Z,13.43
2018-10-11T00:42:21.965Z,12.97
2018-10-11T00:44:51.375Z,13.23
2018-10-11T00:47:20.849Z,13.13
2018-10-11T00:49:50.198Z,13.50
2018-10-11T00:52:19.639Z,12.97
2018-10-11T00:54:49.021Z,12.50
2018-10-11T00:57:18.432Z,12.53
2018-10-11T00:59:47.832Z,13.40
2018-10-11T01:02:17.288Z,12.57
2018-10-11T01:04:46.640Z,11.73
2018-10-11T01:07:16.094Z,12.47
2018-10-11T01:09:45.600Z,12.37
2018-10-11T01:12:14.929Z,12.53
2018-10-11T01:14:44.416Z,11.97
2018-10-11T01:17:13.741Z,12.60
2018-10-11T01:19:43.129Z,12.50
2018-10-11T01:22:12.450Z,12.20
2018-10-11T01:24:42.108Z,12.03
2018-10-11T01:27:11.540Z,11.60
2018-10-11T01:29:41.071Z,11.83
2018-10-11T01:32:10.394Z,12.13
2018-10-11T01:34:39.743Z,12.07
2018-10-11T01:37:09.388Z,12.07
2018-10-11T01:39:38.783Z,12.13
2018-10-11T01:42:08.232Z,11.67
2018-10-11T01:44:37.550Z,13.40
2018-10-11T01:47:07.007Z,12.57
2018-10-11T01:49:36.416Z,13.23
2018-10-11T01:52:05.751Z,12.40
2018-10-11T01:54:35.138Z,13.00
2018-10-11T01:57:04.457Z,13.30
2018-10-11T01:59:33.749Z,13.27
2018-10-11T02:02:03.022Z,12.37
2018-10-11T02:04:32.300Z,13.73
2018-10-11T02:07:01.604Z,13.53
2018-10-11T02:09:31.013Z,14.00
2018-10-11T02:12:00.240Z,13.70
2018-10-11T02:14:29.588Z,12.87
2018-10-11T02:16:58.908Z,13.47
2018-10-11T02:19:28.198Z,13.10
2018-10-11T02:21:57.552Z,13.10
2018-10-11T02:24:26.935Z,13.07
2018-10-11T02:26:56.345Z,12.17
2018-10-11T02:29:25.709Z,12.90
2018-10-11T02:31:55.011Z,13.43
2018-10-11T02:34:24.305Z,12.27
2018-10-11T02:36:53.596Z,12.93
2018-10-11T02:39:22.953Z,13.20
2018-10-11T02:41:52.306Z,13.00
2018-10-11T02:44:21.701Z,12.83
2018-10-11T02:46:51.032Z,12.67
2018-10-11T02:49:20.353Z,14.43
2018-10-11T02:51:49.672Z,14.10
2018-10-11T02:54:19.036Z,13.60
2018-10-11T02:56:48.468Z,14.10
2018-10-11T02:59:36.634Z,13.13
2018-10-11T03:02:12.066Z,13.57
2018-10-11T03:04:42.468Z,13.30
2018-10-11T03:07:12.713Z,13.90
2018-10-11T03:09:42.936Z,12.80
2018-10-11T03:12:12.755Z,12.23
2018-10-11T03:14:42.177Z,13.47
2018-10-11T03:17:11.756Z,13.20
2018-10-11T03:19:41.999Z,12.83
2018-10-11T03:22:12.009Z,12.73
2018-10-11T03:24:41.529Z,12.57
2018-10-11T03:27:10.942Z,13.37
2018-10-11T03:29:40.270Z,12.70
2018-10-11T03:32:09.665Z,13.50
2018-10-11T03:34:38.981Z,13.90
2018-10-11T03:37:08.364Z,13.50
2018-10-11T03:39:37.696Z,13.83
2018-10-11T03:42:07.288Z,13.63
2018-10-11T03:44:36.599Z,14.60
2018-10-11T03:47:05.928Z,15.30
2018-10-11T03:49:35.584Z,15.17
2018-10-11T03:52:04.940Z,14.60
2018-10-11T03:54:34.263Z,14.33
2018-10-11T03:57:03.637Z,14.80
2018-10-11T03:59:32.976Z,16.63
2018-10-11T04:02:02.340Z,15.30
2018-10-11T04:04:31.710Z,15.40
2018-10-11T04:07:01.072Z,15.00
2018-10-11T04:09:30.426Z,14.30
2018-10-11T04:11:59.776Z,15.60
2018-10-11T04:14:29.069Z,14.57
2018-10-11T04:16:58.407Z,15.77
2018-10-11T04:19:27.703Z,15.63
2018-10-11T04:21:57.003Z,15.53
2018-10-11T04:24:26.263Z,15.13
2018-10-11T04:26:55.559Z,15.67
2018-10-11T04:29:25.111Z,16.63
2018-10-11T04:31:54.396Z,14.43
2018-10-11T04:34:23.640Z,15.20
2018-10-11T04:36:52.952Z,15.40
2018-10-11T04:39:22.263Z,15.73
2018-10-11T04:41:51.632Z,15.80
2018-10-11T04:44:20.928Z,16.03
2018-10-11T04:46:50.202Z,15.93
2018-10-11T04:49:19.462Z,15.67
2018-10-11T04:51:48.825Z,15.57
2018-10-11T04:54:18.179Z,15.60
2018-10-11T04:56:47.443Z,15.97
2018-10-11T04:59:16.689Z,15.43
2018-10-11T05:01:45.972Z,16.07
2018-10-11T05:04:15.224Z,15.33
2018-10-11T05:06:44.516Z,15.90
2018-10-11T05:09:13.793Z,15.90
2018-10-11T05:11:43.458Z,16.00
2018-10-11T05:14:14.897Z,15.83
2018-10-11T05:16:44.252Z,16.33
2018-10-11T05:19:13.562Z,15.80
2018-10-11T05:21:42.833Z,15.93
2018-10-11T05:24:12.082Z,15.77
2018-10-11T05:26:41.340Z,14.97
2018-10-11T05:29:10.576Z,16.00
2018-10-11T05:31:39.851Z,14.80
2018-10-11T05:34:09.128Z,15.00
2018-10-11T05:36:38.375Z,15.37
2018-10-11T05:39:08.523Z,15.43
2018-10-11T05:41:37.901Z,15.00
2018-10-11T05:44:07.200Z,14.17
2018-10-11T05:46:36.459Z,15.60
2018-10-11T05:49:06.723Z,14.63
2018-10-11T05:51:36.143Z,14.83
2018-10-11T05:54:06.007Z,15.10
2018-10-11T05:56:37.735Z,14.67
2018-10-11T05:59:07.788Z,14.27
2018-10-11T06:01:37.265Z,14.07
2018-10-11T06:04:08.355Z,13.63
2018-10-11T06:06:37.521Z,14.37
2018-10-11T06:09:09.404Z,14.17
2018-10-11T06:11:38.724Z,14.23
2018-10-11T06:14:08.034Z,14.10
2018-10-11T06:16:37.288Z,13.23
2018-10-11T06:19:06.743Z,14.30
2018-10-11T06:21:36.103Z,13.63
2018-10-11T06:24:05.418Z,13.50
2018-10-11T06:26:34.666Z,12.70
2018-10-11T06:29:03.935Z,13.73
2018-10-11T06:31:33.272Z,13.37
2018-10-11T06:34:02.661Z,13.50
2018-10-11T06:36:32.152Z,13.13
2018-10-11T06:39:02.547Z,13.07
2018-10-11T06:41:31.799Z,12.80
2018-10-11T06:44:01.102Z,12.73
2018-10-11T06:46:30.418Z,12.80
2018-10-11T06:48:59.740Z,12.23
2018-10-11T06:51:29.019Z,11.97
2018-10-11T06:53:58.282Z,11.57
2018-10-11T06:56:27.512Z,11.87
2018-10-11T06:58:56.775Z,11.50
2018-10-11T07:01:26.035Z,11.90
2018-10-11T07:03:55.318Z,11.93
2018-10-11T07:06:24.592Z,11.33
2018-10-11T07:08:53.865Z,11.07
2018-10-11T07:11:23.113Z,10.30
2018-10-11T07:13:52.428Z,12.20
2018-10-11T07:16:21.615Z,12.07
2018-10-11T07:18:51.341Z,11.00
2018-10-11T07:21:20.599Z,11.87
2018-10-11T07:23:49.837Z,11.77
2018-10-11T07:26:19.100Z,11.50
2018-10-11T07:28:48.338Z,11.03
2018-10-11T07:31:17.595Z,10.73
2018-10-11T07:33:46.901Z,10.87
2018-10-11T07:36:16.205Z,11.77
2018-10-11T07:38:45.459Z,11.33
2018-10-11T07:41:14.714Z,11.40
2018-10-11T07:43:43.979Z,11.00
2018-10-11T07:46:13.244Z,11.27
2018-10-11T07:48:42.581Z,10.80
2018-10-11T07:51:11.840Z,10.17
2018-10-11T07:53:41.124Z,11.00
2018-10-11T07:56:10.656Z,10.47
2018-10-11T07:58:40.133Z,10.67
2018-10-11T08:01:09.484Z,10.07
2018-10-11T08:03:38.735Z,10.70
2018-10-11T08:06:08.143Z,10.27
2018-10-11T08:08:37.421Z,10.40
2018-10-11T08:11:07.186Z,10.30
2018-10-11T08:13:36.296Z,9.97
2018-10-11T08:16:05.705Z,10.43
2018-10-11T08:18:34.914Z,10.67
2018-10-11T08:21:04.240Z,10.40
2018-10-11T08:23:33.499Z,9.60
2018-10-11T08:26:03.176Z,9.60
2018-10-11T08:28:32.002Z,9.97
2018-10-11T08:31:01.229Z,10.07
2018-10-11T08:33:30.491Z,9.97
2018-10-11T08:35:59.712Z,9.80
2018-10-11T08:38:28.992Z,9.23
2018-10-11T08:40:58.235Z,9.80
2018-10-11T08:43:27.673Z,10.20
2018-10-11T08:45:56.886Z,10.27
2018-10-11T08:48:26.120Z,10.13
2018-10-11T08:50:55.455Z,10.20
2018-10-11T08:53:24.669Z,9.83
2018-10-11T08:55:53.944Z,10.23
2018-10-11T08:58:23.176Z,9.90
2018-10-11T09:00:52.416Z,9.10
2018-10-11T09:03:21.739Z,9.25
2018-10-11T09:05:50.903Z,9.60
2018-10-11T09:08:20.150Z,9.53
2018-10-11T09:10:49.668Z,9.23
2018-10-11T09:13:18.897Z,9.90
2018-10-11T09:15:48.206Z,9.13
2018-10-11T09:18:17.661Z,9.35
2018-10-11T09:20:46.938Z,9.45
2018-10-11T09:23:16.257Z,9.10
2018-10-11T09:25:45.428Z,9.20
2018-10-11T09:28:14.684Z,9.03
2018-10-11T09:30:43.941Z,9.27
2018-10-11T09:33:13.279Z,8.58
2018-10-11T09:35:42.572Z,8.88
2018-10-11T09:38:11.902Z,9.23
2018-10-11T09:40:41.262Z,9.13
2018-10-11T09:43:10.599Z,8.80
2018-10-11T09:45:39.784Z,8.98
2018-10-11T09:48:09.097Z,8.43
2018-10-11T09:50:38.465Z,8.85
2018-10-11T09:53:07.853Z,8.00
2018-10-11T09:55:37.156Z,8.58
2018-10-11T09:58:06.551Z,8.88
2018-10-11T10:00:40.915Z,8.58
2018-10-11T10:03:10.175Z,8.20
2018-10-11T10:05:39.408Z,8.18
2018-10-11T10:08:08.914Z,8.40
2018-10-11T10:10:38.173Z,7.87
2018-10-11T10:13:07.441Z,7.62
2018-10-11T10:15:36.796Z,7.45
2018-10-11T10:18:06.008Z,8.20
2018-10-11T10:20:35.276Z,8.38
2018-10-11T10:23:04.519Z,7.75
2018-10-11T10:25:33.771Z,8.25
2018-10-11T10:28:03.040Z,7.58
2018-10-11T10:30:37.449Z,8.18
2018-10-11T10:33:06.707Z,7.78
2018-10-11T10:35:35.961Z,7.70
2018-10-11T10:38:05.223Z,7.17
2018-10-11T10:40:34.571Z,7.35
2018-10-11T10:43:03.784Z,7.53
2018-10-11T10:45:33.024Z,7.65
2018-10-11T10:48:02.328Z,7.17
2018-10-11T10:50:31.570Z,7.60
2018-10-11T10:53:00.837Z,7.37
2018-10-11T10:55:30.169Z,7.25
2018-10-11T10:57:59.398Z,7.22
2018-10-11T11:00:28.724Z,7.40
2018-10-11T11:02:58.131Z,6.70
2018-10-11T11:05:33.956Z,6.87
2018-10-11T11:08:03.234Z,6.97
2018-10-11T11:10:32.461Z,7.12
2018-10-11T11:13:01.806Z,6.87
2018-10-11T11:15:31.011Z,6.75
2018-10-11T11:18:00.268Z,6.60
2018-10-11T11:20:29.511Z,6.58
2018-10-11T11:22:58.787Z,6.33
2018-10-11T11:25:28.065Z,6.72
2018-10-11T11:27:57.350Z,6.50
2018-10-11T11:30:26.568Z,6.67
2018-10-11T11:32:55.890Z,6.78
2018-10-11T11:35:25.219Z,6.78
2018-10-11T11:37:54.623Z,6.80
2018-10-11T11:40:23.883Z,6.80
2018-10-11T11:42:53.147Z,6.87
2018-10-11T11:45:22.387Z,6.12
2018-10-11T11:47:51.641Z,5.97
2018-10-11T11:50:21.021Z,6.65
2018-10-11T11:52:50.182Z,7.05
2018-10-11T11:55:19.406Z,6.35
2018-10-11T11:57:48.689Z,6.87
2018-10-11T12:00:17.876Z,6.05
2018-10-11T12:02:47.177Z,6.50
2018-10-11T12:05:16.484Z,6.40
2018-10-11T12:07:45.652Z,6.53
2018-10-11T12:10:14.930Z,6.45
2018-10-11T12:13:02.896Z,6.58
2018-10-11T12:15:32.753Z,5.90
2018-10-11T12:18:03.017Z,6.20
2018-10-11T12:20:34.487Z,6.35
2018-10-11T12:23:04.917Z,6.35
2018-10-11T12:25:34.360Z,6.30
2018-10-11T12:28:03.682Z,6.20
2018-10-11T12:30:32.970Z,5.80
2018-10-11T12:33:02.215Z,6.40
2018-10-11T12:35:31.874Z,5.83
2018-10-11T12:38:01.111Z,5.97
2018-10-11T12:40:30.340Z,6.00
2018-10-11T12:42:59.618Z,6.22
2018-10-11T12:45:28.859Z,5.42
2018-10-11T12:47:58.136Z,6.10
2018-10-11T12:50:27.384Z,5.28
2018-10-11T12:52:56.677Z,6.17
2018-10-11T12:55:25.941Z,5.87
2018-10-11T12:57:55.172Z,5.97
2018-10-11T13:00:24.408Z,5.85
2018-10-11T13:02:53.691Z,5.70
2018-10-11T13:05:22.831Z,6.20
2018-10-11T13:07:52.184Z,5.45
2018-10-11T13:10:21.473Z,5.33
2018-10-11T13:12:50.731Z,6.00
2018-10-11T13:15:20.108Z,5.67
2018-10-11T13:17:49.320Z,5.45
2018-10-11T13:20:18.589Z,5.47
2018-10-11T13:22:47.855Z,5.60
2018-10-11T13:25:17.040Z,5.75
2018-10-11T13:27:46.247Z,5.30
2018-10-11T13:30:15.479Z,5.55
2018-10-11T13:32:44.713Z,4.95
2018-10-11T13:35:14.068Z,5.45
2018-10-11T13:37:43.228Z,5.92
2018-10-11T13:40:12.509Z,5.62
2018-10-11T13:42:41.874Z,5.37
2018-10-11T13:45:11.223Z,5.33
2018-10-11T13:47:44.855Z,5.53
2018-10-11T13:50:09.731Z,5.35
2018-10-11T13:52:38.979Z,4.90
2018-10-11T13:55:12.154Z,5.12
2018-10-11T13:57:37.548Z,5.28
2018-10-11T14:00:07.684Z,5.20
2018-10-11T14:02:36.968Z,4.67
2018-10-11T14:05:06.351Z,5.22
2018-10-11T14:07:35.731Z,5.10
2018-10-11T14:10:04.975Z,4.72
2018-10-11T14:12:34.276Z,5.12
2018-10-11T14:15:03.593Z,4.85
2018-10-11T14:17:32.928Z,4.67
2018-10-11T14:20:02.164Z,4.60
2018-10-11T14:22:31.431Z,4.70
2018-10-11T14:25:00.678Z,4.97
2018-10-11T14:27:29.985Z,4.80
2018-10-11T14:29:59.295Z,5.25
2018-10-11T14:32:28.636Z,4.87
2018-10-11T14:34:57.933Z,4.78
2018-10-11T14:37:27.191Z,4.90
2018-10-11T14:39:56.465Z,4.50
2018-10-11T14:42:26.784Z,4.53
2018-10-11T14:44:56.041Z,4.47
2018-10-11T14:47:25.320Z,4.90
2018-10-11T14:49:54.603Z,4.78
2018-10-11T14:52:23.905Z,4.83
2018-10-11T14:54:53.202Z,4.75
2018-10-11T14:57:22.613Z,4.67
2018-10-11T14:59:51.816Z,4.65
2018-10-11T15:02:21.096Z,4.47
2018-10-11T15:04:50.333Z,4.92
2018-10-11T15:07:19.644Z,4.72
2018-10-11T15:09:48.905Z,4.30
2018-10-11T15:12:18.178Z,4.58
2018-10-11T15:14:50.376Z,4.90
2018-10-11T15:17:19.616Z,4.50
2018-10-11T15:19:48.850Z,4.90
2018-10-11T15:22:18.156Z,4.50
2018-10-11T15:24:47.408Z,4.33
2018-10-11T15:27:16.744Z,4.53
2018-10-11T15:29:46.055Z,4.83
2018-10-11T15:32:15.295Z,4.73
2018-10-11T15:34:44.561Z,4.40
2018-10-11T15:37:13.811Z,4.78
2018-10-11T15:39:43.056Z,4.60
2018-10-11T15:42:12.308Z,4.73
2018-10-11T15:44:41.546Z,3.97
2018-10-11T15:47:10.816Z,4.50
2018-10-11T15:49:40.085Z,4.80
2018-10-11T15:52:09.503Z,5.10
2018-10-11T15:54:38.736Z,5.23
2018-10-11T15:57:08.165Z,5.50
2018-10-11T15:59:37.434Z,5.40
2018-10-11T16:02:06.781Z,5.60
2018-10-11T16:04:36.038Z,5.20
2018-10-11T16:07:05.335Z,5.00
2018-10-11T16:09:34.636Z,4.90
2018-10-11T16:12:03.901Z,5.80
2018-10-11T16:14:33.209Z,5.40
2018-10-11T16:17:02.561Z,5.80
2018-10-11T16:19:31.824Z,5.13
2018-10-11T16:22:01.089Z,5.83
2018-10-11T16:24:30.310Z,5.50
2018-10-11T16:26:59.629Z,5.03
2018-10-11T16:29:28.885Z,5.27
2018-10-11T16:31:58.219Z,5.80
2018-10-11T16:34:27.632Z,6.20
2018-10-11T16:36:56.880Z,5.70
2018-10-11T16:39:26.113Z,6.10
2018-10-11T16:41:55.340Z,5.60
2018-10-11T16:44:25.641Z,5.83
2018-10-11T16:46:54.868Z,5.93
2018-10-11T16:49:24.086Z,6.30
2018-10-11T16:51:53.783Z,6.20
2018-10-11T16:54:23.094Z,6.03
2018-10-11T16:56:52.635Z,6.30
2018-10-11T16:59:22.084Z,6.10
2018-10-11T17:01:51.324Z,7.00
2018-10-11T17:04:21.078Z,6.77
2018-10-11T17:06:50.270Z,6.40
2018-10-11T17:09:19.508Z,6.67
2018-10-11T17:11:48.766Z,6.83
2018-10-11T17:14:18.040Z,6.83
2018-10-11T17:16:47.279Z,6.90
2018-10-11T17:19:16.716Z,7.00
2018-10-11T17:21:46.076Z,6.97
2018-10-11T17:24:15.265Z,6.93
2018-10-11T17:26:44.500Z,7.30
2018-10-11T17:29:13.721Z,6.87
2018-10-11T17:31:42.971Z,6.93
2018-10-11T17:34:12.314Z,7.07
2018-10-11T17:36:41.551Z,7.10
2018-10-11T17:39:11.679Z,7.43
2018-10-11T17:41:41.470Z,7.20
2018-10-11T17:44:11.487Z,7.57
2018-10-11T17:46:40.788Z,7.77
2018-10-11T17:49:10.096Z,7.73
2018-10-11T17:51:39.323Z,7.20
2018-10-11T17:54:08.567Z,8.10
2018-10-11T17:56:38.267Z,7.50
2018-10-11T17:59:07.657Z,7.57
2018-10-11T18:01:37.018Z,7.60
2018-10-11T18:04:06.292Z,7.97
2018-10-11T18:06:35.546Z,8.10
2018-10-11T18:09:06.733Z,7.70
2018-10-11T18:11:36.012Z,7.97
2018-10-11T18:14:05.254Z,7.70
2018-10-11T18:16:34.500Z,7.17
2018-10-11T18:19:03.723Z,7.77
2018-10-11T18:21:33.001Z,8.20
2018-10-11T18:24:02.263Z,8.67
2018-10-11T18:26:31.616Z,8.33
2018-10-11T18:29:00.898Z,8.43
2018-10-11T18:31:30.134Z,8.53
2018-10-11T18:33:59.451Z,8.60
2018-10-11T18:36:28.848Z,8.50
2018-10-11T18:38:58.107Z,8.03
2018-10-11T18:41:27.445Z,7.77
2018-10-11T18:43:56.727Z,7.67
2018-10-11T18:46:26.030Z,8.07
2018-10-11T18:48:55.350Z,8.87
2018-10-11T18:51:24.757Z,9.90
2018-10-11T18:53:54.063Z,9.20
2018-10-11T18:56:23.320Z,9.27
2018-10-11T18:58:52.583Z,9.80
2018-10-11T19:01:21.871Z,9.90
2018-10-11T19:03:51.125Z,8.63
2018-10-11T19:06:20.554Z,9.17
2018-10-11T19:08:49.900Z,8.80
2018-10-11T19:11:19.251Z,9.20
2018-10-11T19:13:48.579Z,9.43
2018-10-11T19:16:17.844Z,10.17
2018-10-11T19:18:47.149Z,8.57
2018-10-11T19:21:17.262Z,8.67
2018-10-11T19:23:46.752Z,7.50
2018-10-11T19:26:16.009Z,7.83
2018-10-11T19:28:45.307Z,7.20
2018-10-11T19:31:14.624Z,9.00
2018-10-11T19:33:44.016Z,7.97
2018-10-11T19:36:13.273Z,8.33
2018-10-11T19:38:42.683Z,7.87
2018-10-11T19:41:11.968Z,7.53
2018-10-11T19:43:41.209Z,7.43
2018-10-11T19:46:10.638Z,7.30
2018-10-11T19:48:39.856Z,8.13
2018-10-11T19:51:09.108Z,8.30
2018-10-11T19:53:38.362Z,9.37
2018-10-11T19:56:07.678Z,7.87
2018-10-11T19:58:36.976Z,8.27
2018-10-11T20:01:06.236Z,8.23
2018-10-11T20:03:35.526Z,8.53
2018-10-11T20:06:04.841Z,7.80
2018-10-11T20:08:34.228Z,8.63
2018-10-11T20:11:03.366Z,7.93
2018-10-11T20:13:32.672Z,9.70
2018-10-11T20:16:01.975Z,9.03
2018-10-11T20:18:31.304Z,8.47
2018-10-11T20:21:00.572Z,8.43
2018-10-11T20:23:29.953Z,9.50
2018-10-11T20:25:59.336Z,9.37
2018-10-11T20:28:28.581Z,9.50
2018-10-11T20:30:57.852Z,10.10
2018-10-11T20:33:27.161Z,10.07
2018-10-11T20:35:56.545Z,9.10
2018-10-11T20:38:26.218Z,8.20
2018-10-11T20:40:55.575Z,9.43
2018-10-11T20:43:24.931Z,9.70
2018-10-11T20:45:54.147Z,9.87
2018-10-11T20:48:23.508Z,9.50
2018-10-11T20:50:52.755Z,9.67
2018-10-11T20:53:22.079Z,9.67
2018-10-11T20:55:51.328Z,8.40
2018-10-11T20:58:20.656Z,8.93
2018-10-11T21:00:49.901Z,8.57
2018-10-11T21:03:19.203Z,8.97
2018-10-11T21:05:48.492Z,8.20
2018-10-11T21:08:17.699Z,9.27
2018-10-11T21:10:47.071Z,8.67
2018-10-11T21:13:16.307Z,9.30
2018-10-11T21:15:45.606Z,8.23
2018-10-11T21:18:15.074Z,9.07
2018-10-11T21:20:44.371Z,9.23
2018-10-11T21:23:13.682Z,8.33
2018-10-11T21:25:42.998Z,8.20
2018-10-11T21:28:12.298Z,8.27
2018-10-11T21:30:41.552Z,9.90
2018-10-11T21:33:11.025Z,9.17
2018-10-11T21:35:40.279Z,8.77
2018-10-11T21:38:09.566Z,9.27
2018-10-11T21:40:38.843Z,8.47
2018-10-11T21:43:08.083Z,8.77
2018-10-11T21:45:37.376Z,9.13
2018-10-11T21:48:06.713Z,8.63
2018-10-11T21:50:35.973Z,8.50
2018-10-11T21:53:05.270Z,8.63
2018-10-11T21:55:34.570Z,8.90
2018-10-11T21:58:03.841Z,9.17
2018-10-11T22:00:38.587Z,9.27
2018-10-11T22:03:07.872Z,9.03
2018-10-11T22:05:37.128Z,9.90
2018-10-11T22:08:06.409Z,8.80
2018-10-11T22:10:35.674Z,8.77
2018-10-11T22:13:04.949Z,9.40
2018-10-11T22:15:34.204Z,9.80
2018-10-11T22:18:03.510Z,9.13
2018-10-11T22:20:32.864Z,10.00
2018-10-11T22:23:02.152Z,7.40
2018-10-11T22:25:31.415Z,8.97
2018-10-11T22:28:00.720Z,7.57
2018-10-11T22:30:30.009Z,8.50
2018-10-11T22:32:59.273Z,7.77
2018-10-11T22:35:28.693Z,9.10
2018-10-11T22:38:00.338Z,15.10
2018-10-11T22:40:29.953Z,10.40
2018-10-11T22:42:59.216Z,10.07
2018-10-11T22:45:28.556Z,10.00
2018-10-11T22:47:57.863Z,9.73
2018-10-11T22:50:27.971Z,10.37
2018-10-11T22:52:57.439Z,11.50
2018-10-11T22:55:30.777Z,10.20
2018-10-11T22:58:00.810Z,11.63
2018-10-11T23:00:30.207Z,10.67
2018-10-11T23:02:59.500Z,11.07
2018-10-11T23:05:28.811Z,12.00
2018-10-11T23:07:58.165Z,11.83
2018-10-11T23:10:27.456Z,11.50
2018-10-11T23:12:56.749Z,11.40
2018-10-11T23:15:26.109Z,10.33
2018-10-11T23:17:55.364Z,10.50
2018-10-11T23:20:24.652Z,11.20
2018-10-11T23:22:53.899Z,9.80
2018-10-11T23:25:23.156Z,9.47
2018-10-11T23:27:52.407Z,11.03
2018-10-11T23:30:21.664Z,9.80
2018-10-11T23:32:50.953Z,10.37
2018-10-11T23:35:20.244Z,10.03
2018-10-11T23:37:49.569Z,9.00
2018-10-11T23:40:18.863Z,9.93
2018-10-11T23:42:48.183Z,8.73
2018-10-11T23:45:17.483Z,9.20
2018-10-11T23:47:46.715Z,9.80
2018-10-11T23:50:15.981Z,10.43
2018-10-11T23:52:45.252Z,10.07
2018-10-11T23:55:14.624Z,11.10
2018-10-11T23:57:43.977Z,10.50
